Tangail, Bangladesh
Current Conditions -  °F | °C
As of 10:20 PM on Saturday 25 Oct 2014 (Local Time) from VGHS Reporting Station
Haze Haze  
Wind Chill: 79°   Ceiling: 10000
Heat Index: 82°   Visibility: 2.5mi
Dew Point: 72°   Wind: 5mph
Humidity: 78%   Direction: 50°NE
Pressure: 29.85"   Gusts: NA
Location:  24.25°N, 89.92°E
Report Text: VGHS 251620Z 05004KT 4000 HZ SCT012 BKN100 26/22 Q1011 NOSIG
Loading
Personal Weather Stations






























Interactive Weather Map New forecast layout! Learn more

10-Day Weather Forecast

Advertisements
Track Severe Weather on mobile